Time;durP1;ratioP1;P1;durP2;ratioP2;P2;SDS_P1;SDS_P2;PMS_P1;PMS_P2;Temp;Humidity;BMP_temperature;BMP_pressure;BME280_temperature;BME280_humidity;BME280_pressure;Samples;Min_cycle;Max_cycle;Signal;HPM_P1;HPM_P2
2023/01/28 00:01:06;381777.00;1.27;658.48;0.00;0.00;0.62;;;;;3.00;1.00;;;;;;2260390;61;1091;-86
2023/01/28 00:03:34;447120.00;1.49;770.83;0.00;0.00;0.62;;;;;2.30;1.00;;;;;;2260395;61;1353;-86
2023/01/28 00:06:04;556190.00;1.85;958.63;0.00;0.00;0.62;;;;;1.90;1.00;;;;;;2260324;61;1713;-87
2023/01/28 00:08:33;336089.00;1.12;579.95;0.00;0.00;0.62;;;;;2.10;1.00;;;;;;2260461;61;956;-87
2023/01/28 00:11:01;464441.00;1.55;800.63;0.00;0.00;0.62;;;;;2.30;1.00;;;;;;2260395;61;1864;-87
2023/01/28 00:13:28;267449.00;0.89;461.96;0.00;0.00;0.62;;;;;2.80;1.00;;;;;;2260245;61;1701;-87
2023/01/28 00:15:57;410002.00;1.37;707.00;0.00;0.00;0.62;;;;;2.80;1.00;;;;;;2260439;61;927;-87
2023/01/28 00:18:25;366253.00;1.22;631.80;0.00;0.00;0.62;;;;;2.60;1.00;;;;;;2260339;61;1916;-85
2023/01/28 00:20:58;497745.00;1.66;857.94;0.00;0.00;0.62;;;;;2.90;1.00;;;;;;2260313;61;1020;-89
2023/01/28 00:23:26;331935.00;1.11;572.81;0.00;0.00;0.62;;;;;3.10;1.00;;;;;;2260283;61;1276;-88
2023/01/28 00:25:53;338196.00;1.13;583.57;0.00;0.00;0.62;;;;;3.10;1.00;;;;;;2260154;61;1693;-88
2023/01/28 00:28:21;308705.00;1.03;532.88;0.00;0.00;0.62;;;;;3.20;1.00;;;;;;2260355;61;1496;-87
2023/01/28 00:30:48;306314.00;1.02;528.77;0.00;0.00;0.62;;;;;3.00;1.00;;;;;;2260362;61;1172;-86
2023/01/28 00:33:16;219884.00;0.73;380.14;0.00;0.00;0.62;;;;;3.00;1.00;;;;;;2260314;61;1747;-88
2023/01/28 00:35:43;300366.00;1.00;518.55;0.00;0.00;0.62;;;;;2.60;1.00;;;;;;2260359;61;977;-91
2023/01/28 00:38:11;365794.00;1.22;631.01;0.00;0.00;0.62;;;;;2.60;1.00;;;;;;2260221;61;1963;-88
2023/01/28 00:40:38;303355.00;1.01;523.69;0.00;0.00;0.62;;;;;2.60;1.00;;;;;;2260338;61;1116;-90
2023/01/28 00:43:05;429108.00;1.43;739.85;0.00;0.00;0.62;;;;;2.80;1.00;;;;;;2260132;61;1499;-87
2023/01/28 00:45:32;291248.00;0.97;502.87;0.00;0.00;0.62;;;;;2.40;1.00;;;;;;2260323;61;915;-86
2023/01/28 00:47:59;297673.00;0.99;513.92;0.00;0.00;0.62;;;;;2.40;1.00;;;;;;2260270;61;1448;-88
2023/01/28 00:50:27;337851.00;1.13;582.98;0.00;0.00;0.62;;;;;2.60;1.00;;;;;;2260249;61;1647;-87
2023/01/28 00:52:54;327856.00;1.09;565.80;0.00;0.00;0.62;;;;;2.60;1.00;;;;;;2260243;61;1274;-88
2023/01/28 00:55:21;296369.00;0.99;511.68;0.00;0.00;0.62;;;;;2.90;1.00;;;;;;2260252;61;1705;-88
2023/01/28 00:57:48;393970.00;1.31;679.44;0.00;0.00;0.62;;;;;3.20;1.00;;;;;;2260282;61;1914;-89
2023/01/28 01:00:16;321240.00;1.07;554.43;0.00;0.00;0.62;;;;;2.80;1.00;;;;;;2260182;61;1728;-88
2023/01/28 01:02:43;439369.00;1.46;757.50;0.00;0.00;0.62;;;;;2.60;1.00;;;;;;2260196;61;1263;-88
2023/01/28 01:05:10;335221.00;1.12;578.46;0.00;0.00;0.62;;;;;2.40;1.00;;;;;;2260160;61;1021;-88
2023/01/28 01:07:41;374830.00;1.25;646.54;0.00;0.00;0.62;;;;;2.50;1.00;;;;;;2260173;61;1794;-89
2023/01/28 01:10:09;372226.00;1.24;642.06;0.00;0.00;0.62;;;;;2.60;1.00;;;;;;2260228;61;1652;-88
2023/01/28 01:12:37;344378.00;1.15;594.20;0.00;0.00;0.62;;;;;2.60;1.00;;;;;;2260275;61;1062;-89
2023/01/28 01:15:07;352661.00;1.18;608.43;0.00;0.00;0.62;;;;;2.50;1.00;;;;;;2260236;61;1059;-87
2023/01/28 01:17:36;275968.00;0.92;476.61;0.00;0.00;0.62;;;;;2.40;1.00;;;;;;2260118;61;1911;-89
2023/01/28 01:20:03;543780.00;1.81;937.24;0.00;0.00;0.62;;;;;2.30;1.00;;;;;;2260267;61;951;-88
2023/01/28 01:22:33;583091.00;1.94;1005.03;0.00;0.00;0.62;;;;;2.10;1.00;;;;;;2259969;61;1713;-88
2023/01/28 01:25:02;366891.00;1.22;632.89;0.00;0.00;0.62;;;;;2.20;1.00;;;;;;2260132;61;1617;-86
2023/01/28 01:27:29;313695.00;1.05;541.46;0.00;0.00;0.62;;;;;1.90;1.00;;;;;;2260123;61;1142;-85
2023/01/28 01:29:57;463593.00;1.55;799.17;0.00;0.00;0.62;;;;;2.00;1.00;;;;;;2260127;61;1557;-87
2023/01/28 01:32:25;381911.00;1.27;658.71;0.00;0.00;0.62;;;;;2.30;1.00;;;;;;2260210;61;1023;-85
2023/01/28 01:34:51;495930.00;1.65;854.82;0.00;0.00;0.62;;;;;2.60;1.00;;;;;;2260167;61;1405;-87
2023/01/28 01:37:18;414234.00;1.38;714.28;0.00;0.00;0.62;;;;;2.80;1.00;;;;;;2260180;61;1684;-87
2023/01/28 01:39:45;261514.00;0.87;451.75;0.00;0.00;0.62;;;;;2.70;1.00;;;;;;2260089;61;2037;-88
2023/01/28 01:42:15;307355.00;1.02;530.56;0.00;0.00;0.62;;;;;2.60;1.00;;;;;;2260093;61;1083;-87
2023/01/28 01:44:57;303842.00;1.01;524.52;0.00;0.00;0.62;;;;;2.70;1.00;;;;;;2260125;61;1412;-88
2023/01/28 01:47:31;503653.00;1.68;868.11;0.00;0.00;0.62;;;;;2.50;1.00;;;;;;2260153;61;1018;-90
2023/01/28 01:50:01;452067.00;1.51;779.34;0.00;0.00;0.62;;;;;2.30;1.00;;;;;;2260153;61;1570;-88
2023/01/28 01:52:34;641999.00;2.14;1106.80;0.00;0.00;0.62;;;;;1.90;1.00;;;;;;2260117;61;1609;-88
2023/01/28 01:55:07;772120.00;2.57;1332.54;41821.00;0.14;73.04;;;;;1.90;1.00;;;;;;2260749;61;1383;-89
2023/01/28 01:57:37;683087.00;2.28;1177.92;0.00;0.00;0.62;;;;;2.00;1.00;;;;;;2260826;61;1640;-89
2023/01/28 02:00:07;517351.00;1.72;891.70;0.00;0.00;0.62;;;;;2.10;1.00;;;;;;2260827;61;1052;-88
2023/01/28 02:02:40;680988.00;2.27;1174.28;0.00;0.00;0.62;;;;;2.20;1.00;;;;;;2260793;61;1529;-88
2023/01/28 02:05:08;502419.00;1.67;865.99;22864.00;0.08;40.23;;;;;2.40;1.00;;;;;;2260822;61;910;-88
2023/01/28 02:07:36;887461.00;2.96;1534.11;31480.00;0.10;55.14;;;;;2.50;1.00;;;;;;2260787;61;999;-88
2023/01/28 02:10:05;848748.00;2.83;1466.28;4823.00;0.02;8.98;;;;;2.40;1.00;;;;;;2260591;61;1462;-89
2023/01/28 02:12:37;607465.00;2.02;1047.11;0.00;0.00;0.62;;;;;2.50;1.00;;;;;;2260760;61;1711;-89
2023/01/28 02:15:08;563244.00;1.88;970.79;0.00;0.00;0.62;;;;;2.50;1.00;;;;;;2260660;61;984;-88
2023/01/28 02:17:37;550952.00;1.84;949.60;0.00;0.00;0.62;;;;;2.70;1.00;;;;;;2260642;61;1015;-88
2023/01/28 02:20:07;551222.00;1.84;950.07;0.00;0.00;0.62;;;;;2.60;1.00;;;;;;2260773;61;1929;-87
2023/01/28 02:23:04;605862.00;2.02;1044.34;0.00;0.00;0.62;;;;;2.40;1.00;;;;;;2260755;61;1113;-88
2023/01/28 02:26:04;622354.00;2.07;1072.83;57585.00;0.19;100.30;;;;;2.50;1.00;;;;;;2260767;61;1107;-88
2023/01/28 02:28:39;427489.00;1.42;737.07;0.00;0.00;0.62;;;;;2.50;1.00;;;;;;2260655;61;999;-86
2023/01/28 02:38:54;704512.00;2.35;1215.06;0.00;0.00;0.62;;;;;2.60;1.00;;;;;;2261920;61;1894;-88
2023/01/28 02:41:27;340606.00;1.14;587.72;0.00;0.00;0.62;;;;;2.50;1.00;;;;;;2260737;61;981;-90
2023/01/28 02:43:56;276856.00;0.92;478.13;0.00;0.00;0.62;;;;;2.70;1.00;;;;;;2260606;61;1779;-88
2023/01/28 02:48:59;442590.00;1.48;763.04;0.00;0.00;0.62;;;;;2.80;1.00;;;;;;812405;60;1768;-87
2023/01/28 02:51:37;542882.00;1.81;935.69;0.00;0.00;0.62;;;;;2.80;1.00;;;;;;2260526;61;957;-88
2023/01/28 02:54:13;533875.00;1.78;920.17;0.00;0.00;0.62;;;;;2.90;1.00;;;;;;2260733;61;1440;-89
2023/01/28 02:56:52;476973.00;1.59;822.19;0.00;0.00;0.62;;;;;2.90;1.00;;;;;;2260721;61;908;-89
2023/01/28 02:59:31;448121.00;1.49;772.55;0.00;0.00;0.62;;;;;2.80;1.00;;;;;;2260683;61;1916;-87
2023/01/28 03:02:07;373564.00;1.25;644.36;0.00;0.00;0.62;;;;;2.50;1.00;;;;;;2260762;61;1020;-88
2023/01/28 03:04:41;551699.00;1.84;950.89;0.00;0.00;0.62;;;;;2.50;1.00;;;;;;2260537;61;1657;-89
2023/01/28 03:07:11;595127.00;1.98;1025.81;0.00;0.00;0.62;;;;;2.60;1.00;;;;;;2260563;61;1650;-87
2023/01/28 03:09:39;645403.00;2.15;1112.68;0.00;0.00;0.62;;;;;2.40;1.00;;;;;;2260680;61;974;-88
2023/01/28 03:37:30;449400.00;1.50;774.75;0.00;0.00;0.62;;;;;2.60;1.00;;;;;;2260664;61;685;-88
2023/01/28 03:40:03;368319.00;1.23;635.35;0.00;0.00;0.62;;;;;2.40;1.00;;;;;;2260493;61;1935;-89
2023/01/28 03:42:31;409294.00;1.36;705.78;0.00;0.00;0.62;;;;;2.10;1.00;;;;;;2260576;61;1395;-87
2023/01/28 03:45:00;517433.00;1.72;891.84;0.00;0.00;0.62;;;;;2.30;1.00;;;;;;2260523;61;1999;-89
2023/01/28 03:47:30;417357.00;1.39;719.65;0.00;0.00;0.62;;;;;2.20;1.00;;;;;;2260473;61;1094;-87
2023/01/28 03:49:59;333621.00;1.11;575.71;0.00;0.00;0.62;;;;;1.90;1.70;;;;;;2260304;61;1626;-87
2023/01/28 03:52:28;458474.00;1.53;790.36;0.00;0.00;0.62;;;;;2.20;1.00;;;;;;2260443;61;1054;-88
2023/01/28 03:54:55;393560.00;1.31;678.73;0.00;0.00;0.62;;;;;2.20;1.00;;;;;;2260370;61;1533;-88
2023/01/28 03:57:24;523791.00;1.75;902.80;0.00;0.00;0.62;;;;;2.20;1.00;;;;;;2260528;61;1084;-86
2023/01/28 04:02:24;749825.00;2.50;1293.75;0.00;0.00;0.62;;;;;2.20;1.00;;;;;;2262401;61;1414;-88
2023/01/28 04:04:52;522206.00;1.74;900.06;0.00;0.00;0.62;;;;;2.10;1.00;;;;;;2260494;61;2265;-88
2023/01/28 04:07:19;239862.00;0.80;414.51;0.00;0.00;0.62;;;;;2.00;1.10;;;;;;2260311;61;1598;-86
2023/01/28 04:09:46;318931.00;1.06;550.46;0.00;0.00;0.62;;;;;2.40;1.00;;;;;;2260453;61;1728;-86
2023/01/28 04:12:13;273703.00;0.91;472.71;0.00;0.00;0.62;;;;;2.60;1.00;;;;;;2260307;61;1530;-88
2023/01/28 04:14:40;508189.00;1.69;875.92;0.00;0.00;0.62;;;;;2.70;1.00;;;;;;2260370;61;1415;-88
2023/01/28 04:17:09;448272.00;1.49;772.81;0.00;0.00;0.62;;;;;2.60;1.00;;;;;;2260289;61;1011;-89
2023/01/28 04:19:37;497201.00;1.66;857.00;0.00;0.00;0.62;;;;;2.50;1.00;;;;;;2260303;61;1910;-88
2023/01/28 04:22:09;388921.00;1.30;670.76;0.00;0.00;0.62;;;;;2.40;1.00;;;;;;2260378;61;1115;-87
2023/01/28 04:24:37;447696.00;1.49;771.82;0.00;0.00;0.62;;;;;2.30;1.00;;;;;;2260291;61;1679;-89
2023/01/28 04:27:03;476294.00;1.59;821.02;0.00;0.00;0.62;;;;;2.20;1.00;;;;;;2260216;61;1371;-87
2023/01/28 04:32:05;567302.00;1.89;977.79;35562.00;0.12;62.21;;;;;2.30;1.00;;;;;;2261834;61;1405;-87
2023/01/28 04:34:31;377201.00;1.26;650.61;0.00;0.00;0.62;;;;;2.40;1.00;;;;;;2260330;61;1400;-86
2023/01/28 04:36:58;422452.00;1.41;728.41;0.00;0.00;0.62;;;;;2.40;1.00;;;;;;2260280;61;1016;-87
2023/01/28 04:39:27;279220.00;0.93;482.20;0.00;0.00;0.62;;;;;2.50;1.00;;;;;;2260222;61;1918;-84
2023/01/28 04:41:53;313582.00;1.05;541.27;0.00;0.00;0.62;;;;;2.70;1.00;;;;;;2260293;61;1563;-86
2023/01/28 04:44:20;302445.00;1.01;522.12;0.00;0.00;0.62;;;;;2.70;1.00;;;;;;2260229;61;1279;-88
2023/01/28 04:46:47;421067.00;1.40;726.03;0.00;0.00;0.62;;;;;2.60;1.00;;;;;;2260249;61;1544;-87
2023/01/28 04:49:14;453577.00;1.51;781.94;0.00;0.00;0.62;;;;;2.60;1.00;;;;;;2260304;61;1008;-88
2023/01/28 04:51:41;352297.00;1.17;607.81;0.00;0.00;0.62;;;;;3.00;1.00;;;;;;2260165;61;1697;-86
2023/01/28 04:54:08;310037.00;1.03;535.17;0.00;0.00;0.62;;;;;2.70;1.00;;;;;;2260235;61;1693;-88
2023/01/28 04:56:37;293406.00;0.98;506.58;0.00;0.00;0.62;;;;;2.80;1.00;;;;;;2260174;61;1685;-87
2023/01/28 04:59:04;353372.00;1.18;609.66;0.00;0.00;0.62;;;;;2.80;1.00;;;;;;2260131;61;1932;-87
2023/01/28 05:01:30;351478.00;1.17;606.40;0.00;0.00;0.62;;;;;2.40;1.00;;;;;;2260287;61;1688;-87
2023/01/28 05:03:58;517969.00;1.73;892.77;20494.00;0.07;36.13;;;;;2.30;1.00;;;;;;2260158;61;1781;-86
2023/01/28 05:06:25;446441.00;1.49;769.66;0.00;0.00;0.62;;;;;2.40;1.00;;;;;;2260292;61;1182;-86
2023/01/28 05:08:52;292890.00;0.98;505.70;0.00;0.00;0.62;;;;;2.40;1.00;;;;;;2260257;61;921;-88
2023/01/28 05:11:19;259127.00;0.86;447.65;0.00;0.00;0.62;;;;;2.50;1.00;;;;;;2260167;61;1625;-86
2023/01/28 05:13:47;284419.00;0.95;491.13;0.00;0.00;0.62;;;;;2.60;1.00;;;;;;2260112;61;1601;-87
2023/01/28 05:16:14;353425.00;1.18;609.75;0.00;0.00;0.62;;;;;2.70;1.00;;;;;;2260155;61;1038;-85
2023/01/28 05:18:41;497695.00;1.66;857.86;0.00;0.00;0.62;;;;;2.80;1.00;;;;;;2260154;61;1927;-88
2023/01/28 05:21:08;272827.00;0.91;471.20;0.00;0.00;0.62;;;;;2.70;1.00;;;;;;2260179;61;1412;-89
2023/01/28 05:23:34;454356.00;1.51;783.28;0.00;0.00;0.62;;;;;2.60;1.00;;;;;;2260006;61;1285;-87
2023/01/28 05:26:02;524358.00;1.75;903.77;0.00;0.00;0.62;;;;;2.80;1.00;;;;;;2260091;61;1677;-87
2023/01/28 05:28:29;460218.00;1.53;793.36;0.00;0.00;0.62;;;;;2.80;1.00;;;;;;2260010;61;950;-85
2023/01/28 05:30:57;435120.00;1.45;750.19;0.00;0.00;0.62;;;;;2.80;1.00;;;;;;2260093;61;1623;-88
2023/01/28 05:33:24;304605.00;1.02;525.84;0.00;0.00;0.62;;;;;2.70;1.00;;;;;;2260168;61;1380;-88
2023/01/28 05:35:51;280897.00;0.94;485.08;0.00;0.00;0.62;;;;;2.70;1.00;;;;;;2260136;61;1780;-88
2023/01/28 05:38:18;385774.00;1.29;665.35;0.00;0.00;0.62;;;;;2.50;1.00;;;;;;2260217;61;1142;-87
2023/01/28 05:40:45;303339.00;1.01;523.66;0.00;0.00;0.62;;;;;2.40;1.00;;;;;;2260172;61;2003;-87
2023/01/28 05:43:11;364416.00;1.21;628.64;0.00;0.00;0.62;;;;;2.20;1.00;;;;;;2260093;61;1716;-87
2023/01/28 05:45:38;304251.00;1.01;525.23;0.00;0.00;0.62;;;;;2.50;1.00;;;;;;2260125;61;1733;-86
2023/01/28 05:48:07;429624.00;1.43;740.74;0.00;0.00;0.62;;;;;2.60;1.00;;;;;;2260093;61;1660;-86
2023/01/28 05:50:34;496680.00;1.66;856.11;0.00;0.00;0.62;;;;;2.50;1.00;;;;;;2259896;61;948;-88
2023/01/28 05:53:01;390307.00;1.30;673.14;0.00;0.00;0.62;;;;;2.60;1.00;;;;;;2260109;61;1418;-90
2023/01/28 05:55:28;353343.00;1.18;609.61;0.00;0.00;0.62;;;;;3.00;1.00;;;;;;2260163;61;1034;-86
2023/01/28 05:57:54;322717.00;1.08;556.97;35599.00;0.12;62.27;;;;;3.30;1.00;;;;;;2259970;61;987;-88
2023/01/28 06:00:22;441931.00;1.47;761.90;0.00;0.00;0.62;;;;;3.40;1.00;;;;;;2259849;61;2009;-88
2023/01/28 06:02:51;532244.00;1.77;917.36;0.00;0.00;0.62;;;;;3.60;1.00;;;;;;2259809;61;1553;-87
2023/01/28 06:05:20;546466.00;1.82;941.87;0.00;0.00;0.62;;;;;3.50;1.00;;;;;;2260099;61;992;-86
2023/01/28 06:07:48;351141.00;1.17;605.82;0.00;0.00;0.62;;;;;3.30;1.00;;;;;;2282900;40;3622;-87
2023/01/28 06:10:16;269127.00;0.90;464.84;0.00;0.00;0.62;;;;;3.60;1.00;;;;;;2260710;61;878;-88
2023/01/28 06:12:43;284787.00;0.95;491.77;0.00;0.00;0.62;;;;;3.30;1.00;;;;;;2259861;61;1616;-87
2023/01/28 06:15:11;554861.00;1.85;956.34;0.00;0.00;0.62;;;;;3.20;1.00;;;;;;2260073;61;1128;-87
2023/01/28 06:17:38;456188.00;1.52;786.43;13176.00;0.04;23.45;;;;;3.20;1.00;;;;;;2260039;61;1209;-88
2023/01/28 06:20:07;437357.00;1.46;754.04;0.00;0.00;0.62;;;;;3.10;1.00;;;;;;2259589;61;1978;-87
2023/01/28 06:22:36;368261.00;1.23;635.25;0.00;0.00;0.62;;;;;3.00;1.00;;;;;;2260087;61;1111;-87
2023/01/28 06:25:04;1132727.00;3.78;1969.05;41463.00;0.14;72.42;;;;;2.90;1.00;;;;;;2259925;61;1393;-88
2023/01/28 06:27:30;1127507.00;3.76;1959.69;22565.00;0.08;39.71;;;;;3.10;1.00;;;;;;2259958;61;1702;-87
2023/01/28 06:29:57;979246.00;3.26;1695.75;44828.00;0.15;78.24;;;;;3.40;1.00;;;;;;2259971;61;1468;-89
2023/01/28 06:32:25;961561.00;3.21;1664.51;80246.00;0.27;139.46;;;;;3.40;1.00;;;;;;2259946;61;1010;-89
2023/01/28 06:34:52;1346140.00;4.49;2356.80;104013.00;0.35;180.50;;;;;3.20;1.00;;;;;;2260063;61;1314;-87
2023/01/28 06:37:19;549632.00;1.83;947.33;15393.00;0.05;27.29;;;;;3.20;1.00;;;;;;2260121;61;907;-87
2023/01/28 06:39:47;108438.00;0.36;188.13;0.00;0.00;0.62;;;;;3.10;1.00;;;;;;2259805;61;2005;-85
2023/01/28 06:42:15;617877.00;2.06;1065.10;0.00;0.00;0.62;;;;;3.00;1.00;;;;;;2260238;61;1718;-86
2023/01/28 06:44:42;421260.00;1.40;726.36;0.00;0.00;0.62;;;;;2.70;1.00;;;;;;2260578;61;1390;-87
2023/01/28 06:47:09;310278.00;1.03;535.59;0.00;0.00;0.62;;;;;2.70;1.00;;;;;;2260606;61;981;-87
2023/01/28 06:49:36;194124.00;0.65;335.81;0.00;0.00;0.62;;;;;2.80;1.00;;;;;;2260685;61;1255;-88
2023/01/28 06:52:04;331877.00;1.11;572.71;0.00;0.00;0.62;;;;;3.10;1.00;;;;;;2260508;61;1059;-88
2023/01/28 06:54:30;598536.00;2.00;1031.69;0.00;0.00;0.62;;;;;3.80;1.00;;;;;;2260556;61;1402;-87
2023/01/28 06:56:59;222470.00;0.74;384.59;0.00;0.00;0.62;;;;;4.00;1.00;;;;;;2260587;61;938;-88
2023/01/28 06:59:26;369053.00;1.23;636.61;0.00;0.00;0.62;;;;;3.80;1.00;;;;;;2260407;61;2000;-85
2023/01/28 07:01:53;296529.00;0.99;511.95;47770.00;0.16;83.33;;;;;3.80;1.00;;;;;;2260588;61;1103;-87
2023/01/28 07:04:19;247480.00;0.82;427.62;0.00;0.00;0.62;;;;;4.20;1.00;;;;;;2260449;61;1379;-88
2023/01/28 07:06:46;271096.00;0.90;468.23;0.00;0.00;0.62;;;;;4.00;1.00;;;;;;2260540;61;1077;-86
2023/01/28 07:09:13;472530.00;1.58;814.54;0.00;0.00;0.62;;;;;3.60;1.00;;;;;;2260410;61;1035;-86
2023/01/28 07:11:40;413266.00;1.38;712.61;0.00;0.00;0.62;;;;;3.20;1.00;;;;;;2260684;61;987;-86
2023/01/28 07:14:09;1278491.00;4.26;2232.79;0.00;0.00;0.62;;;;;3.20;1.00;;;;;;2260498;61;1473;-86
2023/01/28 07:16:36;362581.00;1.21;625.48;0.00;0.00;0.62;;;;;3.40;1.00;;;;;;2260557;61;1801;-86
2023/01/28 07:19:03;368936.00;1.23;636.41;0.00;0.00;0.62;;;;;3.80;1.00;;;;;;2260561;61;1056;-88
2023/01/28 07:21:30;405965.00;1.35;700.06;0.00;0.00;0.62;;;;;3.90;1.00;;;;;;2260583;61;1936;-88
2023/01/28 07:23:56;407345.00;1.36;702.43;42697.00;0.14;74.55;;;;;3.60;1.00;;;;;;2260427;61;1523;-85
2023/01/28 07:26:23;242894.00;0.81;419.73;0.00;0.00;0.62;;;;;3.60;1.00;;;;;;2260393;61;1071;-89
2023/01/28 07:28:50;469636.00;1.57;809.56;0.00;0.00;0.62;;;;;3.60;1.00;;;;;;2260233;61;1545;-88
2023/01/28 07:31:18;443870.00;1.48;765.24;0.00;0.00;0.62;;;;;3.60;1.00;;;;;;2260351;61;1206;-88
2023/01/28 07:33:45;253093.00;0.84;437.27;0.00;0.00;0.62;;;;;3.50;1.00;;;;;;2260325;61;1610;-87
2023/01/28 07:41:19;424862.00;1.42;732.55;0.00;0.00;0.62;;;;;3.60;1.00;;;;;;2262147;61;1977;-88
2023/01/28 07:43:46;497369.00;1.66;857.29;0.00;0.00;0.62;;;;;3.80;1.00;;;;;;2260306;61;1357;-87
2023/01/28 07:46:13;414847.00;1.38;715.33;14331.00;0.05;25.45;;;;;3.40;1.00;;;;;;2260405;61;1378;-87
2023/01/28 07:48:41;326997.00;1.09;564.32;0.00;0.00;0.62;;;;;3.50;1.00;;;;;;2260437;61;1755;-88
2023/01/28 07:51:08;327274.00;1.09;564.80;0.00;0.00;0.62;;;;;3.60;1.00;;;;;;2260388;61;1019;-87
2023/01/28 07:53:36;423615.00;1.41;730.41;0.00;0.00;0.62;;;;;3.50;1.00;;;;;;2260386;61;1633;-87
2023/01/28 07:56:04;379021.00;1.26;653.74;0.00;0.00;0.62;;;;;3.20;1.00;;;;;;2260471;61;1117;-88
2023/01/28 07:58:31;455352.00;1.52;784.99;0.00;0.00;0.62;;;;;3.30;1.00;;;;;;2279460;56;3741;-89
2023/01/28 08:00:59;229659.00;0.77;396.96;0.00;0.00;0.62;;;;;3.30;1.00;;;;;;2260453;61;1997;-89
2023/01/28 08:06:01;1027825.00;3.43;1781.82;0.00;0.00;0.62;;;;;3.30;1.00;;;;;;2268881;56;3648;-87
2023/01/28 08:08:28;505323.00;1.68;870.99;0.00;0.00;0.62;;;;;3.50;1.00;;;;;;2273197;41;3587;-89
2023/01/28 08:10:55;355862.00;1.19;613.94;0.00;0.00;0.62;;;;;3.20;1.00;;;;;;2260220;61;1551;-89
2023/01/28 08:13:23;672198.00;2.24;1159.06;0.00;0.00;0.62;;;;;3.50;1.00;;;;;;2260173;61;1370;-87
2023/01/28 08:15:55;600032.00;2.00;1034.28;101256.00;0.34;175.74;;;;;3.70;1.00;;;;;;2260348;61;1144;-88
2023/01/28 08:23:29;705847.00;2.35;1217.38;0.00;0.00;0.62;;;;;3.50;1.00;;;;;;2262111;61;1282;-89
2023/01/28 08:56:24;1158100.00;3.86;2014.65;0.00;0.00;0.62;;;;;3.60;1.00;;;;;;2268437;56;3632;-88
2023/01/28 09:09:01;879204.00;2.93;1519.62;0.00;0.00;0.62;;;;;3.20;1.00;;;;;;2262492;61;1238;-89
2023/01/28 09:11:30;297950.00;0.99;514.40;0.00;0.00;0.62;;;;;3.40;1.00;;;;;;2260816;61;851;-90
2023/01/28 09:13:57;264229.00;0.88;456.42;0.00;0.00;0.62;;;;;3.40;1.00;;;;;;2260584;61;1318;-91
2023/01/28 09:16:25;765302.00;2.55;1320.68;0.00;0.00;0.62;;;;;3.40;1.00;;;;;;2282085;56;3816;-88
2023/01/28 09:21:21;975508.00;3.25;1689.14;0.00;0.00;0.62;;;;;3.60;1.00;;;;;;2261351;61;1976;-88
2023/01/28 09:23:48;584171.00;1.95;1006.90;0.00;0.00;0.62;;;;;3.40;1.00;;;;;;2260088;61;1371;-88
2023/01/28 09:26:15;479082.00;1.60;825.82;0.00;0.00;0.62;;;;;3.20;1.00;;;;;;2266891;56;3787;-88
2023/01/28 09:33:47;1190897.00;3.97;2073.77;99440.00;0.33;172.61;;;;;3.40;1.00;;;;;;2261743;61;1397;-87
2023/01/28 10:19:12;693616.00;2.31;1196.17;0.00;0.00;0.62;;;;;3.90;1.00;;;;;;2262726;61;1335;-88
2023/01/28 10:52:15;962685.00;3.21;1666.49;0.00;0.00;0.62;;;;;3.90;1.00;;;;;;2289285;56;3603;-87
2023/01/28 11:27:37;1094053.00;3.65;1899.79;104498.00;0.35;181.34;;;;;4.40;1.00;;;;;;1880527;56;3556;-91
2023/01/28 12:18:12;1066452.00;3.55;1850.53;0.00;0.00;0.62;;;;;4.20;1.00;;;;;;2282492;56;3605;-85
2023/01/28 12:28:21;1045180.00;3.48;1812.66;29626.00;0.10;51.94;;;;;4.10;1.00;;;;;;2261729;61;1180;-87
2023/01/28 12:31:08;434289.00;1.45;748.76;0.00;0.00;0.62;;;;;4.10;1.00;;;;;;2260223;61;998;-88
2023/01/28 12:48:50;900039.00;3.00;1556.19;0.00;0.00;0.62;;;;;3.70;1.00;;;;;;2261855;61;1239;-88
2023/01/28 13:01:35;814355.00;2.71;1406.17;0.00;0.00;0.62;;;;;3.50;1.00;;;;;;2258415;61;1946;-88
2023/01/28 13:09:17;1070851.00;3.57;1858.37;0.00;0.00;0.62;;;;;3.90;1.00;;;;;;2261708;61;1211;-87
2023/01/28 13:36:58;1181753.00;3.94;2057.26;16636.00;0.06;29.44;;;;;3.90;1.00;;;;;;2262111;61;1202;-88
2023/01/28 13:44:30;1625985.00;5.42;2882.50;149.00;0.00;0.88;;;;;4.10;1.00;;;;;;2276097;40;3592;-88
2023/01/28 14:10:10;766286.00;2.55;1322.39;0.00;0.00;0.62;;;;;4.20;1.00;;;;;;2258940;61;1128;-88
2023/01/28 14:15:39;779782.00;2.60;1345.89;0.00;0.00;0.62;;;;;3.80;1.00;;;;;;2263201;61;1322;-89
2023/01/28 14:38:38;646165.00;2.15;1114.00;0.00;0.00;0.62;;;;;3.30;1.00;;;;;;2262902;61;1018;-89
2023/01/28 15:24:15;1324688.00;4.42;2317.36;70214.00;0.23;122.13;;;;;3.10;2.20;;;;;;2262771;61;1324;-89
2023/01/28 15:29:31;960223.00;3.20;1662.15;28522.00;0.10;50.02;;;;;3.30;1.30;;;;;;2262776;61;1438;-89
2023/01/28 15:34:32;1047539.00;3.49;1816.85;0.00;0.00;0.62;;;;;3.60;1.00;;;;;;2355324;55;3629;-90
2023/01/28 15:37:00;386382.00;1.29;666.40;0.00;0.00;0.62;;;;;3.60;1.00;;;;;;2261091;61;1553;-89
2023/01/28 15:42:07;822553.00;2.74;1420.48;0.00;0.00;0.62;;;;;3.50;1.00;;;;;;2262604;61;1879;-90
2023/01/28 17:41:57;910611.00;3.04;1574.76;0.00;0.00;0.62;;;;;4.50;1.00;;;;;;2261780;61;1964;-88
2023/01/28 17:46:55;732361.00;2.44;1263.40;0.00;0.00;0.62;;;;;4.40;1.00;;;;;;2262300;61;1322;-87
2023/01/28 18:22:19;616652.00;2.06;1062.98;108243.00;0.36;187.80;;;;;4.10;1.00;;;;;;2271892;56;1917;-88
2023/01/28 18:24:45;853075.00;2.84;1473.85;97557.00;0.33;169.35;;;;;4.30;1.00;;;;;;2306380;56;3728;-88
2023/01/28 18:27:13;957647.00;3.19;1657.60;105523.00;0.35;183.10;;;;;4.30;1.00;;;;;;2262200;61;1795;-89
2023/01/28 18:34:53;1164065.00;3.88;2025.38;98810.00;0.33;171.52;;;;;4.00;1.00;;;;;;2262640;61;1317;-88
2023/01/28 18:37:22;117684360.00;392.28;66021836.00;102158.00;0.34;177.30;;;;;4.30;1.00;;;;;;2261307;61;1051;-86
2023/01/28 18:39:49;119480488.00;398.27;69093960.00;100794.00;0.34;174.94;;;;;4.40;1.00;;;;;;2261312;61;1134;-88
2023/01/28 18:42:16;1073038.00;3.58;1862.27;101604.00;0.34;176.34;;;;;4.30;1.00;;;;;;2261206;61;1923;-91
2023/01/28 18:44:43;837511.00;2.79;1446.62;90725.00;0.30;157.56;;;;;4.00;1.00;;;;;;2353342;40;3767;-89
2023/01/28 18:52:22;1016393.00;3.39;1761.53;0.00;0.00;0.62;;;;;4.20;1.00;;;;;;1226520;41;3245;-87
2023/01/28 18:59:57;1191447.00;3.97;2074.76;29754.00;0.10;52.16;;;;;4.20;1.00;;;;;;2258941;61;1013;-88
2023/01/28 19:02:24;565092.00;1.88;973.98;69881.00;0.23;121.55;;;;;4.50;1.00;;;;;;2257229;61;2001;-88
2023/01/28 19:04:51;962155.00;3.21;1665.56;0.00;0.00;0.62;;;;;4.50;1.00;;;;;;2257193;61;2009;-88
2023/01/28 19:07:18;918309.00;3.06;1588.30;72956.00;0.24;126.87;;;;;4.30;1.00;;;;;;2257120;61;1205;-90
2023/01/28 19:09:46;507841.00;1.69;875.32;0.00;0.00;0.62;;;;;4.60;1.00;;;;;;2257195;61;1639;-88
2023/01/28 19:12:13;522458.00;1.74;900.50;0.00;0.00;0.62;;;;;4.60;1.00;;;;;;2257234;61;990;-90
2023/01/28 19:14:40;759636.00;2.53;1310.82;23198.00;0.08;40.81;;;;;4.90;1.00;;;;;;2257233;61;1293;-89
2023/01/28 19:17:07;668787.00;2.23;1153.15;35752.00;0.12;62.54;;;;;4.80;1.00;;;;;;2256830;61;1751;-90
2023/01/28 19:19:34;675481.00;2.25;1164.75;31011.00;0.10;54.33;;;;;4.80;1.00;;;;;;2256602;61;807;-91
2023/01/28 19:22:01;620063.00;2.07;1068.88;0.00;0.00;0.62;;;;;4.60;1.00;;;;;;2256793;61;1915;-88
2023/01/28 19:24:28;661724.00;2.21;1140.92;0.00;0.00;0.62;;;;;4.50;1.00;;;;;;2257078;61;1724;-89
2023/01/28 19:26:57;645732.00;2.15;1113.25;12623.00;0.04;22.49;;;;;4.00;1.00;;;;;;2257120;61;1646;-92
2023/01/28 19:31:55;1112485.00;3.71;1932.77;0.00;0.00;0.62;;;;;4.40;1.00;;;;;;2262852;61;1342;-88
2023/01/28 19:34:22;318430.00;1.06;549.60;0.00;0.00;0.62;;;;;4.50;1.00;;;;;;2261079;61;1581;-87
2023/01/28 19:36:49;385253.00;1.28;664.45;3345.00;0.01;6.42;;;;;4.00;1.00;;;;;;2261091;61;1721;-90
2023/01/28 19:39:16;787180.00;2.62;1358.77;0.00;0.00;0.62;;;;;3.60;1.00;;;;;;2262394;55;3848;-89
2023/01/28 19:41:44;765003.00;2.55;1320.16;0.00;0.00;0.62;;;;;3.30;1.00;;;;;;2275362;56;3753;-89
2023/01/28 19:49:19;771168.00;2.57;1330.89;0.00;0.00;0.62;;;;;4.00;1.00;;;;;;2262634;61;1021;-87
2023/01/28 19:54:18;1116616.00;3.72;1940.16;0.00;0.00;0.62;;;;;3.90;1.00;;;;;;2284247;56;3583;-87
2023/01/28 19:56:45;411495.00;1.37;709.57;0.00;0.00;0.62;;;;;4.00;1.00;;;;;;2319463;56;3806;-89
2023/01/28 21:10:51;1150923.00;3.84;2001.74;0.00;0.00;0.62;;;;;3.50;1.00;;;;;;2262305;61;1294;-89
2023/01/28 21:15:56;438779.00;1.46;756.48;0.00;0.00;0.62;;;;;3.80;1.00;;;;;;2291472;41;2300;-87
2023/01/28 21:18:23;699643.00;2.33;1206.62;0.00;0.00;0.62;;;;;4.00;1.00;;;;;;2282190;41;3778;-85